RJSF/FKS METAR and TAF weather

Enter ICAO airport designator
Station Type Date Time Source
RJSF METAR 2022/12/04 06:00 UTC NOAA

RJSF 040600Z 33014KT 9999 FEW020 SCT080 BKN090 08/02 Q1016


Station Type Date Time Source
RJSF Decoded METAR 2022/12/04 06:00 UTC NOAA

Fukushima Airport, Japan (RJSF) 37-14N 140-26E 375M
Dec 04, 2022 - 01:00 AM EST / 2022.12.04 0600 UTC
Wind: from the NNW (330 degrees) at 16 MPH (14 KT):0
Visibility: greater than 7 mile(s):0
Sky conditions: mostly cloudy
Temperature: 46 F (8 C)
Dew Point: 35 F (2 C)
Relative Humidity: 65%
Pressure (altimeter): 30.00 in. Hg (1016 hPa)
ob: RJSF 040600Z 33014KT 9999 FEW020 SCT080 BKN090 08/02 Q1016
cycle: 6

Station Type Date Time Source
RJSF TAF 2022/12/04 06:30 UTC NOAA

TAF RJSF 040505Z 0406/0512 32010KT 9999 FEW020 BKN040

Example: see airport list